createdAt,value
2023-04-27T00:06:18.970Z,46.60
2023-04-27T00:16:26.339Z,47.00
2023-04-27T00:26:35.336Z,47.20
2023-04-27T00:36:42.454Z,47.50
2023-04-27T00:46:51.182Z,47.50
2023-04-27T00:56:58.856Z,47.70
2023-04-27T01:07:08.246Z,47.60
2023-04-27T01:17:15.353Z,47.20
2023-04-27T01:27:24.107Z,48.00
2023-04-27T01:37:31.130Z,48.30
2023-04-27T01:47:40.385Z,48.40
2023-04-27T01:57:47.714Z,48.30
2023-04-27T02:07:57.395Z,48.30
2023-04-27T02:18:04.602Z,48.40
2023-04-27T02:28:13.404Z,48.20
2023-04-27T02:38:23.873Z,48.50
2023-04-27T02:48:33.525Z,51.30
2023-04-27T02:58:40.431Z,52.10
2023-04-27T03:08:49.818Z,52.80
2023-04-27T03:18:57.584Z,52.70
2023-04-27T03:29:06.408Z,52.70
2023-04-27T03:39:14.109Z,52.60
2023-04-27T03:49:23.176Z,52.20
2023-04-27T03:59:32.827Z,52.30
2023-04-27T04:09:42.180Z,52.60
2023-04-27T04:19:49.342Z,51.90
2023-04-27T04:29:58.104Z,52.80
2023-04-27T04:40:11.447Z,53.00
2023-04-27T04:50:21.364Z,52.70
2023-04-27T05:00:28.458Z,54.70
2023-04-27T05:10:40.796Z,54.20
2023-04-27T05:20:47.935Z,54.00
2023-04-27T05:30:56.681Z,53.90
2023-04-27T05:41:04.850Z,53.80
2023-04-27T05:51:13.663Z,53.40
2023-04-27T06:01:20.775Z,53.30
2023-04-27T06:11:30.151Z,53.10
2023-04-27T06:21:37.443Z,53.10
2023-04-27T06:31:46.144Z,52.90
2023-04-27T06:41:53.293Z,53.10
2023-04-27T06:52:02.169Z,52.60
2023-04-27T07:02:10.368Z,52.50
2023-04-27T07:12:19.808Z,52.20
2023-04-27T07:22:26.951Z,52.20
2023-04-27T07:32:35.558Z,51.80
2023-04-27T07:42:43.012Z,51.70
2023-04-27T07:52:51.917Z,51.50
2023-04-27T08:02:59.463Z,51.20
2023-04-27T08:13:10.891Z,51.10
2023-04-27T08:23:18.332Z,50.90
2023-04-27T08:33:27.048Z,50.80
2023-04-27T08:43:37.962Z,50.70
2023-04-27T08:53:51.912Z,50.60
2023-04-27T09:04:03.025Z,50.40
2023-04-27T09:14:22.571Z,50.20
2023-04-27T09:24:29.878Z,50.10
2023-04-27T09:34:44.715Z,50.00
2023-04-27T09:44:52.581Z,50.00
2023-04-27T09:55:03.022Z,49.80
2023-04-27T10:05:29.519Z,49.80
2023-04-27T10:15:43.743Z,49.60
2023-04-27T10:25:50.896Z,49.50
2023-04-27T10:36:01.434Z,49.50
2023-04-27T10:46:13.196Z,49.50
2023-04-27T10:56:22.699Z,49.40
2023-04-27T11:06:31.179Z,49.30
2023-04-27T11:16:48.399Z,49.20
2023-04-27T11:26:58.221Z,49.10
2023-04-27T11:47:20.956Z,48.90
2023-04-27T11:57:31.392Z,48.80
2023-04-27T12:07:38.399Z,48.80
2023-04-27T12:17:47.869Z,48.70
2023-04-27T12:27:54.897Z,48.60
2023-04-27T12:38:04.333Z,48.60
2023-04-27T12:48:11.555Z,48.40
2023-04-27T12:58:20.327Z,48.40
2023-04-27T13:08:27.446Z,48.40
2023-04-27T13:18:36.610Z,48.30
2023-04-27T13:28:43.842Z,48.20
2023-04-27T13:38:52.899Z,48.20
2023-04-27T13:49:00.108Z,48.10
2023-04-27T13:59:10.299Z,48.00
2023-04-27T14:09:18.083Z,48.00
2023-04-27T14:19:28.410Z,48.10
2023-04-27T14:29:35.481Z,48.30
2023-04-27T14:39:45.368Z,48.40
2023-04-27T14:49:52.472Z,49.30
2023-04-27T15:00:01.359Z,50.00
2023-04-27T15:10:09.114Z,50.10
2023-04-27T15:20:19.023Z,50.50
2023-04-27T15:30:26.006Z,50.30
2023-04-27T15:40:36.424Z,48.80
2023-04-27T15:50:43.372Z,47.50
2023-04-27T16:00:52.159Z,46.00
2023-04-27T16:10:59.196Z,45.40
2023-04-27T16:21:10.759Z,45.50
2023-04-27T16:31:18.011Z,44.60
2023-04-27T16:41:27.014Z,44.20
2023-04-27T16:51:40.118Z,44.40
2023-04-27T17:01:49.519Z,44.00
2023-04-27T17:12:30.729Z,44.30
2023-04-27T17:35:10.803Z,44.50
2023-04-27T17:45:20.707Z,44.00
2023-04-27T17:56:10.065Z,44.50
2023-04-27T18:29:29.857Z,46.10
2023-04-27T18:50:53.698Z,47.10
2023-04-27T19:13:56.591Z,48.60
2023-04-27T19:59:33.718Z,50.40
2023-04-27T20:09:55.996Z,49.40
2023-04-27T20:32:00.282Z,51.30
2023-04-27T20:42:30.535Z,50.50
2023-04-27T20:52:37.848Z,50.40
2023-04-27T21:02:48.292Z,50.60
2023-04-27T21:12:55.796Z,50.60
2023-04-27T21:23:04.969Z,50.40
2023-04-27T21:33:12.539Z,50.40
2023-04-27T21:43:21.530Z,50.50
2023-04-27T21:53:28.955Z,50.30
2023-04-27T22:03:38.513Z,50.10
2023-04-27T22:13:50.349Z,50.40
2023-04-27T22:23:59.020Z,50.50
2023-04-27T22:34:09.971Z,51.00
2023-04-27T22:44:24.939Z,50.50
2023-04-27T22:54:32.238Z,50.50
2023-04-27T23:04:44.890Z,50.50
2023-04-27T23:14:51.992Z,50.30
2023-04-27T23:25:07.364Z,50.30
2023-04-27T23:35:14.791Z,50.50
2023-04-27T23:46:18.495Z,50.10
2023-04-27T23:57:14.956Z,50.50
